sensor_id;sensor_type;location;lat;lon;timestamp;P1;durP1;ratioP1;P2;durP2;ratioP2
72201;SDS011;60105;54.956;73.412;2023-06-04T00:02:26;17.98;;;9.10;;
72201;SDS011;60105;54.956;73.412;2023-06-04T00:05:28;14.60;;;7.80;;
72201;SDS011;60105;54.956;73.412;2023-06-04T00:08:29;15.33;;;8.03;;
72201;SDS011;60105;54.956;73.412;2023-06-04T00:11:30;13.07;;;8.03;;
72201;SDS011;60105;54.956;73.412;2023-06-04T00:14:34;15.23;;;7.37;;
72201;SDS011;60105;54.956;73.412;2023-06-04T00:17:36;16.92;;;6.55;;
72201;SDS011;60105;54.956;73.412;2023-06-04T00:20:37;14.25;;;7.00;;
72201;SDS011;60105;54.956;73.412;2023-06-04T00:23:38;15.20;;;8.00;;
72201;SDS011;60105;54.956;73.412;2023-06-04T00:26:39;13.80;;;7.45;;
72201;SDS011;60105;54.956;73.412;2023-06-04T00:29:41;13.73;;;6.30;;
72201;SDS011;60105;54.956;73.412;2023-06-04T00:33:22;20.06;;;6.80;;
72201;SDS011;60105;54.956;73.412;2023-06-04T00:36:23;17.23;;;8.23;;
72201;SDS011;60105;54.956;73.412;2023-06-04T00:39:25;18.42;;;7.93;;
72201;SDS011;60105;54.956;73.412;2023-06-04T00:42:26;23.52;;;7.75;;
72201;SDS011;60105;54.956;73.412;2023-06-04T00:45:27;14.73;;;6.73;;
72201;SDS011;60105;54.956;73.412;2023-06-04T00:48:32;17.40;;;5.30;;
72201;SDS011;60105;54.956;73.412;2023-06-04T00:51:33;14.20;;;5.90;;
72201;SDS011;60105;54.956;73.412;2023-06-04T00:54:36;12.70;;;5.45;;
72201;SDS011;60105;54.956;73.412;2023-06-04T00:57:50;16.01;;;5.90;;
72201;SDS011;60105;54.956;73.412;2023-06-04T01:00:52;13.77;;;6.03;;
72201;SDS011;60105;54.956;73.412;2023-06-04T01:03:58;12.80;;;5.30;;
72201;SDS011;60105;54.956;73.412;2023-06-04T01:07:03;17.45;;;5.32;;
72201;SDS011;60105;54.956;73.412;2023-06-04T01:10:07;16.53;;;5.17;;
72201;SDS011;60105;54.956;73.412;2023-06-04T01:16:23;13.95;;;4.95;;
72201;SDS011;60105;54.956;73.412;2023-06-04T01:26:01;16.00;;;6.07;;
72201;SDS011;60105;54.956;73.412;2023-06-04T01:29:04;12.83;;;5.33;;
72201;SDS011;60105;54.956;73.412;2023-06-04T01:32:06;14.20;;;5.72;;
72201;SDS011;60105;54.956;73.412;2023-06-04T01:35:09;10.37;;;5.20;;
72201;SDS011;60105;54.956;73.412;2023-06-04T01:41:23;15.93;;;5.90;;
72201;SDS011;60105;54.956;73.412;2023-06-04T01:44:24;17.45;;;6.43;;
72201;SDS011;60105;54.956;73.412;2023-06-04T01:47:26;19.50;;;6.03;;
72201;SDS011;60105;54.956;73.412;2023-06-04T01:50:27;15.20;;;6.20;;
72201;SDS011;60105;54.956;73.412;2023-06-04T01:53:29;15.07;;;5.80;;
72201;SDS011;60105;54.956;73.412;2023-06-04T01:56:31;13.50;;;5.67;;
72201;SDS011;60105;54.956;73.412;2023-06-04T01:59:32;14.63;;;6.10;;
72201;SDS011;60105;54.956;73.412;2023-06-04T02:02:34;13.23;;;6.30;;
72201;SDS011;60105;54.956;73.412;2023-06-04T02:05:36;13.23;;;5.83;;
72201;SDS011;60105;54.956;73.412;2023-06-04T02:08:38;15.27;;;4.78;;
72201;SDS011;60105;54.956;73.412;2023-06-04T02:11:41;12.80;;;5.18;;
72201;SDS011;60105;54.956;73.412;2023-06-04T02:14:42;10.30;;;5.03;;
72201;SDS011;60105;54.956;73.412;2023-06-04T02:18:22;10.13;;;4.93;;
72201;SDS011;60105;54.956;73.412;2023-06-04T02:21:43;13.30;;;5.30;;
72201;SDS011;60105;54.956;73.412;2023-06-04T02:24:45;10.63;;;4.90;;
72201;SDS011;60105;54.956;73.412;2023-06-04T02:27:50;10.05;;;5.63;;
72201;SDS011;60105;54.956;73.412;2023-06-04T02:30:53;12.27;;;5.20;;
72201;SDS011;60105;54.956;73.412;2023-06-04T02:33:55;11.30;;;5.33;;
72201;SDS011;60105;54.956;73.412;2023-06-04T02:36:56;10.70;;;5.15;;
72201;SDS011;60105;54.956;73.412;2023-06-04T02:40:04;15.65;;;5.47;;
72201;SDS011;60105;54.956;73.412;2023-06-04T02:46:23;13.35;;;4.80;;
72201;SDS011;60105;54.956;73.412;2023-06-04T02:49:25;12.73;;;5.10;;
72201;SDS011;60105;54.956;73.412;2023-06-04T02:52:27;12.55;;;5.32;;
72201;SDS011;60105;54.956;73.412;2023-06-04T02:55:28;12.07;;;5.50;;
72201;SDS011;60105;54.956;73.412;2023-06-04T02:58:29;18.47;;;6.17;;
72201;SDS011;60105;54.956;73.412;2023-06-04T03:01:32;9.57;;;5.13;;
72201;SDS011;60105;54.956;73.412;2023-06-04T03:04:34;12.27;;;5.87;;
72201;SDS011;60105;54.956;73.412;2023-06-04T03:07:36;10.55;;;6.05;;
72201;SDS011;60105;54.956;73.412;2023-06-04T03:10:38;12.57;;;6.07;;
72201;SDS011;60105;54.956;73.412;2023-06-04T03:13:39;12.17;;;5.87;;
72201;SDS011;60105;54.956;73.412;2023-06-04T03:16:41;11.07;;;5.57;;
72201;SDS011;60105;54.956;73.412;2023-06-04T03:19:43;13.05;;;5.65;;
72201;SDS011;60105;54.956;73.412;2023-06-04T03:23:22;14.02;;;5.63;;
72201;SDS011;60105;54.956;73.412;2023-06-04T03:26:23;13.60;;;6.15;;
72201;SDS011;60105;54.956;73.412;2023-06-04T03:29:25;18.07;;;6.43;;
72201;SDS011;60105;54.956;73.412;2023-06-04T03:32:26;20.03;;;5.63;;
72201;SDS011;60105;54.956;73.412;2023-06-04T03:35:28;10.80;;;5.40;;
72201;SDS011;60105;54.956;73.412;2023-06-04T03:38:29;10.23;;;5.45;;
72201;SDS011;60105;54.956;73.412;2023-06-04T03:41:31;18.60;;;5.88;;
72201;SDS011;60105;54.956;73.412;2023-06-04T03:44:32;19.37;;;5.73;;
72201;SDS011;60105;54.956;73.412;2023-06-04T03:47:34;16.27;;;6.43;;
72201;SDS011;60105;54.956;73.412;2023-06-04T03:50:37;13.38;;;6.13;;
72201;SDS011;60105;54.956;73.412;2023-06-04T03:53:38;18.57;;;5.53;;
72201;SDS011;60105;54.956;73.412;2023-06-04T03:56:40;14.23;;;6.38;;
72201;SDS011;60105;54.956;73.412;2023-06-04T03:59:44;11.00;;;6.00;;
72201;SDS011;60105;54.956;73.412;2023-06-04T04:03:22;18.73;;;6.47;;
72201;SDS011;60105;54.956;73.412;2023-06-04T04:06:23;16.60;;;6.03;;
72201;SDS011;60105;54.956;73.412;2023-06-04T04:09:25;15.20;;;6.10;;
72201;SDS011;60105;54.956;73.412;2023-06-04T04:12:26;14.57;;;6.17;;
72201;SDS011;60105;54.956;73.412;2023-06-04T04:15:28;18.13;;;5.82;;
72201;SDS011;60105;54.956;73.412;2023-06-04T04:18:33;21.27;;;6.37;;
72201;SDS011;60105;54.956;73.412;2023-06-04T04:21:36;13.70;;;6.45;;
72201;SDS011;60105;54.956;73.412;2023-06-04T04:24:38;16.73;;;6.33;;
72201;SDS011;60105;54.956;73.412;2023-06-04T04:27:50;11.66;;;5.50;;
72201;SDS011;60105;54.956;73.412;2023-06-04T04:30:52;11.50;;;6.37;;
72201;SDS011;60105;54.956;73.412;2023-06-04T04:33:55;14.75;;;6.53;;
72201;SDS011;60105;54.956;73.412;2023-06-04T04:36:56;14.52;;;5.70;;
72201;SDS011;60105;54.956;73.412;2023-06-04T04:39:59;15.47;;;5.87;;
72201;SDS011;60105;54.956;73.412;2023-06-04T04:46:30;12.68;;;6.15;;
72201;SDS011;60105;54.956;73.412;2023-06-04T04:49:32;11.93;;;5.57;;
72201;SDS011;60105;54.956;73.412;2023-06-04T04:52:33;10.75;;;5.10;;
72201;SDS011;60105;54.956;73.412;2023-06-04T04:55:36;11.53;;;5.70;;
72201;SDS011;60105;54.956;73.412;2023-06-04T04:58:37;14.48;;;5.80;;
72201;SDS011;60105;54.956;73.412;2023-06-04T05:01:39;13.63;;;5.03;;
72201;SDS011;60105;54.956;73.412;2023-06-04T05:04:41;19.55;;;5.82;;
72201;SDS011;60105;54.956;73.412;2023-06-04T05:08:22;16.30;;;6.13;;
72201;SDS011;60105;54.956;73.412;2023-06-04T05:11:23;25.35;;;6.47;;
72201;SDS011;60105;54.956;73.412;2023-06-04T05:14:25;17.60;;;5.85;;
72201;SDS011;60105;54.956;73.412;2023-06-04T05:17:27;16.25;;;5.75;;
72201;SDS011;60105;54.956;73.412;2023-06-04T05:20:34;18.17;;;5.90;;
72201;SDS011;60105;54.956;73.412;2023-06-04T05:23:42;13.63;;;5.50;;
72201;SDS011;60105;54.956;73.412;2023-06-04T05:26:46;13.85;;;5.40;;
72201;SDS011;60105;54.956;73.412;2023-06-04T05:29:53;13.50;;;5.77;;
72201;SDS011;60105;54.956;73.412;2023-06-04T05:33:22;16.20;;;5.20;;
72201;SDS011;60105;54.956;73.412;2023-06-04T05:36:30;13.90;;;5.75;;
72201;SDS011;60105;54.956;73.412;2023-06-04T05:39:35;11.10;;;5.60;;
72201;SDS011;60105;54.956;73.412;2023-06-04T05:43:22;9.25;;;4.82;;
72201;SDS011;60105;54.956;73.412;2023-06-04T05:46:24;10.23;;;4.65;;
72201;SDS011;60105;54.956;73.412;2023-06-04T05:49:26;14.80;;;5.78;;
72201;SDS011;60105;54.956;73.412;2023-06-04T05:52:31;10.93;;;5.50;;
72201;SDS011;60105;54.956;73.412;2023-06-04T05:55:34;12.27;;;5.23;;
72201;SDS011;60105;54.956;73.412;2023-06-04T05:58:36;13.37;;;5.07;;
72201;SDS011;60105;54.956;73.412;2023-06-04T06:01:39;15.70;;;5.47;;
72201;SDS011;60105;54.956;73.412;2023-06-04T06:04:40;12.73;;;4.83;;
72201;SDS011;60105;54.956;73.412;2023-06-04T06:08:22;13.06;;;4.56;;
72201;SDS011;60105;54.956;73.412;2023-06-04T06:11:24;11.03;;;5.00;;
72201;SDS011;60105;54.956;73.412;2023-06-04T06:14:28;10.50;;;4.00;;
72201;SDS011;60105;54.956;73.412;2023-06-04T06:17:29;11.77;;;4.13;;
72201;SDS011;60105;54.956;73.412;2023-06-04T06:20:31;11.10;;;3.88;;
72201;SDS011;60105;54.956;73.412;2023-06-04T06:23:33;17.58;;;4.68;;
72201;SDS011;60105;54.956;73.412;2023-06-04T06:26:35;15.15;;;4.43;;
72201;SDS011;60105;54.956;73.412;2023-06-04T06:29:38;12.85;;;3.80;;
72201;SDS011;60105;54.956;73.412;2023-06-04T06:33:22;13.06;;;4.36;;
72201;SDS011;60105;54.956;73.412;2023-06-04T06:36:24;8.88;;;3.90;;
72201;SDS011;60105;54.956;73.412;2023-06-04T06:39:27;13.07;;;3.97;;
72201;SDS011;60105;54.956;73.412;2023-06-04T06:42:32;9.50;;;3.70;;
72201;SDS011;60105;54.956;73.412;2023-06-04T06:45:34;12.13;;;4.13;;
72201;SDS011;60105;54.956;73.412;2023-06-04T06:48:35;7.03;;;3.83;;
72201;SDS011;60105;54.956;73.412;2023-06-04T06:51:36;10.63;;;4.00;;
72201;SDS011;60105;54.956;73.412;2023-06-04T06:54:38;12.32;;;4.28;;
72201;SDS011;60105;54.956;73.412;2023-06-04T06:57:50;8.76;;;3.86;;
72201;SDS011;60105;54.956;73.412;2023-06-04T07:00:51;16.70;;;4.47;;
72201;SDS011;60105;54.956;73.412;2023-06-04T07:03:59;9.65;;;3.90;;
72201;SDS011;60105;54.956;73.412;2023-06-04T07:07:01;8.88;;;3.97;;
72201;SDS011;60105;54.956;73.412;2023-06-04T07:10:03;8.87;;;4.23;;
72201;SDS011;60105;54.956;73.412;2023-06-04T07:16:23;9.35;;;3.50;;
72201;SDS011;60105;54.956;73.412;2023-06-04T07:19:24;13.17;;;3.97;;
72201;SDS011;60105;54.956;73.412;2023-06-04T07:22:26;9.38;;;4.13;;
72201;SDS011;60105;54.956;73.412;2023-06-04T07:25:27;8.83;;;3.93;;
72201;SDS011;60105;54.956;73.412;2023-06-04T07:28:29;14.33;;;4.53;;
72201;SDS011;60105;54.956;73.412;2023-06-04T07:31:30;14.38;;;4.70;;
72201;SDS011;60105;54.956;73.412;2023-06-04T07:34:32;11.57;;;4.33;;
72201;SDS011;60105;54.956;73.412;2023-06-04T07:37:34;10.23;;;3.88;;
72201;SDS011;60105;54.956;73.412;2023-06-04T07:40:35;10.23;;;3.83;;
72201;SDS011;60105;54.956;73.412;2023-06-04T07:43:37;12.10;;;3.33;;
72201;SDS011;60105;54.956;73.412;2023-06-04T07:46:38;11.57;;;3.95;;
72201;SDS011;60105;54.956;73.412;2023-06-04T07:49:40;13.27;;;3.78;;
72201;SDS011;60105;54.956;73.412;2023-06-04T07:53:22;10.85;;;4.12;;
72201;SDS011;60105;54.956;73.412;2023-06-04T07:56:23;11.40;;;3.72;;
72201;SDS011;60105;54.956;73.412;2023-06-04T07:59:24;9.05;;;4.18;;
72201;SDS011;60105;54.956;73.412;2023-06-04T08:02:27;11.95;;;4.07;;
72201;SDS011;60105;54.956;73.412;2023-06-04T08:05:29;14.00;;;3.97;;
72201;SDS011;60105;54.956;73.412;2023-06-04T08:08:30;11.73;;;5.53;;
72201;SDS011;60105;54.956;73.412;2023-06-04T08:11:32;10.18;;;4.20;;
72201;SDS011;60105;54.956;73.412;2023-06-04T08:14:33;8.67;;;4.07;;
72201;SDS011;60105;54.956;73.412;2023-06-04T08:17:34;13.33;;;3.97;;
72201;SDS011;60105;54.956;73.412;2023-06-04T08:20:45;9.18;;;3.88;;
72201;SDS011;60105;54.956;73.412;2023-06-04T08:24:03;12.40;;;4.00;;
72201;SDS011;60105;54.956;73.412;2023-06-04T08:27:25;8.52;;;4.00;;
72201;SDS011;60105;54.956;73.412;2023-06-04T08:30:36;10.85;;;4.20;;
72201;SDS011;60105;54.956;73.412;2023-06-04T08:33:42;9.88;;;4.03;;
72201;SDS011;60105;54.956;73.412;2023-06-04T08:36:50;8.83;;;3.50;;
72201;SDS011;60105;54.956;73.412;2023-06-04T08:39:52;9.77;;;3.53;;
72201;SDS011;60105;54.956;73.412;2023-06-04T08:43:22;9.55;;;4.53;;
72201;SDS011;60105;54.956;73.412;2023-06-04T08:46:25;7.90;;;3.97;;
72201;SDS011;60105;54.956;73.412;2023-06-04T08:49:29;9.77;;;3.80;;
72201;SDS011;60105;54.956;73.412;2023-06-04T08:52:35;10.85;;;4.40;;
72201;SDS011;60105;54.956;73.412;2023-06-04T08:55:38;9.27;;;4.03;;
72201;SDS011;60105;54.956;73.412;2023-06-04T08:58:40;11.37;;;4.43;;
72201;SDS011;60105;54.956;73.412;2023-06-04T09:01:44;9.13;;;3.90;;
72201;SDS011;60105;54.956;73.412;2023-06-04T09:04:46;11.27;;;3.90;;
72201;SDS011;60105;54.956;73.412;2023-06-04T09:08:22;8.82;;;4.57;;
72201;SDS011;60105;54.956;73.412;2023-06-04T09:11:26;9.95;;;4.30;;
72201;SDS011;60105;54.956;73.412;2023-06-04T09:14:31;10.90;;;4.33;;
72201;SDS011;60105;54.956;73.412;2023-06-04T09:17:33;10.20;;;4.28;;
72201;SDS011;60105;54.956;73.412;2023-06-04T09:20:34;10.93;;;4.10;;
72201;SDS011;60105;54.956;73.412;2023-06-04T09:23:45;11.70;;;4.73;;
72201;SDS011;60105;54.956;73.412;2023-06-04T09:26:48;13.63;;;4.45;;
72201;SDS011;60105;54.956;73.412;2023-06-04T09:29:53;9.83;;;4.13;;
72201;SDS011;60105;54.956;73.412;2023-06-04T09:33:22;12.88;;;4.07;;
72201;SDS011;60105;54.956;73.412;2023-06-04T09:36:29;12.57;;;3.92;;
72201;SDS011;60105;54.956;73.412;2023-06-04T09:39:31;9.73;;;4.30;;
72201;SDS011;60105;54.956;73.412;2023-06-04T09:42:54;8.05;;;4.00;;
72201;SDS011;60105;54.956;73.412;2023-06-04T09:46:16;13.15;;;4.25;;
72201;SDS011;60105;54.956;73.412;2023-06-04T09:49:18;9.77;;;4.47;;
72201;SDS011;60105;54.956;73.412;2023-06-04T09:52:20;10.82;;;3.83;;
72201;SDS011;60105;54.956;73.412;2023-06-04T09:55:22;9.93;;;4.07;;
72201;SDS011;60105;54.956;73.412;2023-06-04T09:58:27;9.00;;;4.53;;
72201;SDS011;60105;54.956;73.412;2023-06-04T10:01:32;11.43;;;4.20;;
72201;SDS011;60105;54.956;73.412;2023-06-04T10:04:37;11.10;;;3.90;;
72201;SDS011;60105;54.956;73.412;2023-06-04T10:08:22;11.95;;;3.65;;
72201;SDS011;60105;54.956;73.412;2023-06-04T10:11:30;13.95;;;4.18;;
72201;SDS011;60105;54.956;73.412;2023-06-04T10:14:35;12.47;;;4.10;;
72201;SDS011;60105;54.956;73.412;2023-06-04T10:18:22;12.05;;;4.78;;
72201;SDS011;60105;54.956;73.412;2023-06-04T10:21:24;9.53;;;4.10;;
72201;SDS011;60105;54.956;73.412;2023-06-04T10:24:27;13.13;;;3.97;;
72201;SDS011;60105;54.956;73.412;2023-06-04T10:27:30;11.82;;;4.47;;
72201;SDS011;60105;54.956;73.412;2023-06-04T10:30:32;9.40;;;3.95;;
72201;SDS011;60105;54.956;73.412;2023-06-04T10:33:33;9.50;;;3.80;;
72201;SDS011;60105;54.956;73.412;2023-06-04T10:36:42;9.27;;;4.82;;
72201;SDS011;60105;54.956;73.412;2023-06-04T10:39:50;12.57;;;5.03;;
72201;SDS011;60105;54.956;73.412;2023-06-04T10:43:22;14.65;;;5.00;;
72201;SDS011;60105;54.956;73.412;2023-06-04T10:46:40;9.68;;;4.50;;
72201;SDS011;60105;54.956;73.412;2023-06-04T10:49:42;19.10;;;4.60;;
72201;SDS011;60105;54.956;73.412;2023-06-04T10:53:22;8.15;;;4.00;;
72201;SDS011;60105;54.956;73.412;2023-06-04T10:56:25;13.07;;;5.43;;
72201;SDS011;60105;54.956;73.412;2023-06-04T10:59:30;20.13;;;5.25;;
72201;SDS011;60105;54.956;73.412;2023-06-04T11:02:32;13.68;;;5.95;;
72201;SDS011;60105;54.956;73.412;2023-06-04T11:05:34;11.63;;;4.70;;
72201;SDS011;60105;54.956;73.412;2023-06-04T11:08:39;9.17;;;4.30;;
72201;SDS011;60105;54.956;73.412;2023-06-04T11:11:41;12.57;;;4.63;;
72201;SDS011;60105;54.956;73.412;2023-06-04T11:14:57;12.48;;;4.85;;
72201;SDS011;60105;54.956;73.412;2023-06-04T11:21:24;11.52;;;4.32;;
72201;SDS011;60105;54.956;73.412;2023-06-04T11:24:26;9.17;;;4.37;;
72201;SDS011;60105;54.956;73.412;2023-06-04T11:27:28;8.20;;;4.72;;
72201;SDS011;60105;54.956;73.412;2023-06-04T11:30:33;9.45;;;4.32;;
72201;SDS011;60105;54.956;73.412;2023-06-04T11:33:47;11.40;;;4.32;;
72201;SDS011;60105;54.956;73.412;2023-06-04T11:36:49;10.57;;;4.53;;
72201;SDS011;60105;54.956;73.412;2023-06-04T11:39:53;10.77;;;4.18;;
72201;SDS011;60105;54.956;73.412;2023-06-04T11:43:22;10.90;;;6.03;;
72201;SDS011;60105;54.956;73.412;2023-06-04T11:46:24;9.68;;;4.93;;
72201;SDS011;60105;54.956;73.412;2023-06-04T11:49:26;12.33;;;4.57;;
72201;SDS011;60105;54.956;73.412;2023-06-04T11:52:28;7.97;;;4.53;;
72201;SDS011;60105;54.956;73.412;2023-06-04T11:55:31;16.73;;;5.60;;
72201;SDS011;60105;54.956;73.412;2023-06-04T11:58:33;8.60;;;4.77;;
72201;SDS011;60105;54.956;73.412;2023-06-04T12:01:35;10.95;;;4.57;;
72201;SDS011;60105;54.956;73.412;2023-06-04T12:04:37;8.53;;;4.57;;
72201;SDS011;60105;54.956;73.412;2023-06-04T12:08:22;15.55;;;5.01;;
72201;SDS011;60105;54.956;73.412;2023-06-04T12:11:27;10.60;;;5.37;;
72201;SDS011;60105;54.956;73.412;2023-06-04T12:14:33;15.70;;;5.68;;
72201;SDS011;60105;54.956;73.412;2023-06-04T12:17:35;15.65;;;5.85;;
72201;SDS011;60105;54.956;73.412;2023-06-04T12:20:38;13.57;;;5.23;;
72201;SDS011;60105;54.956;73.412;2023-06-04T12:23:42;10.47;;;5.77;;
72201;SDS011;60105;54.956;73.412;2023-06-04T12:26:43;12.90;;;5.07;;
72201;SDS011;60105;54.956;73.412;2023-06-04T12:29:57;9.40;;;4.40;;
72201;SDS011;60105;54.956;73.412;2023-06-04T12:36:23;10.15;;;4.85;;
72201;SDS011;60105;54.956;73.412;2023-06-04T12:39:24;13.32;;;5.38;;
72201;SDS011;60105;54.956;73.412;2023-06-04T12:42:25;12.07;;;5.53;;
72201;SDS011;60105;54.956;73.412;2023-06-04T12:45:28;12.30;;;6.00;;
72201;SDS011;60105;54.956;73.412;2023-06-04T12:48:30;10.73;;;5.17;;
72201;SDS011;60105;54.956;73.412;2023-06-04T12:51:32;13.27;;;5.95;;
72201;SDS011;60105;54.956;73.412;2023-06-04T12:54:34;14.48;;;5.35;;
72201;SDS011;60105;54.956;73.412;2023-06-04T12:57:35;14.35;;;5.10;;
72201;SDS011;60105;54.956;73.412;2023-06-04T13:00:37;12.83;;;6.13;;
72201;SDS011;60105;54.956;73.412;2023-06-04T13:03:39;12.63;;;5.50;;
72201;SDS011;60105;54.956;73.412;2023-06-04T13:06:41;15.15;;;6.97;;
72201;SDS011;60105;54.956;73.412;2023-06-04T13:09:42;12.87;;;6.93;;
72201;SDS011;60105;54.956;73.412;2023-06-04T13:13:22;16.27;;;6.18;;
72201;SDS011;60105;54.956;73.412;2023-06-04T13:16:23;14.05;;;5.35;;
72201;SDS011;60105;54.956;73.412;2023-06-04T13:19:25;13.10;;;5.10;;
72201;SDS011;60105;54.956;73.412;2023-06-04T13:22:26;11.32;;;5.72;;
72201;SDS011;60105;54.956;73.412;2023-06-04T13:25:27;16.17;;;6.10;;
72201;SDS011;60105;54.956;73.412;2023-06-04T13:28:29;11.38;;;5.18;;
72201;SDS011;60105;54.956;73.412;2023-06-04T13:31:31;12.52;;;5.40;;
72201;SDS011;60105;54.956;73.412;2023-06-04T13:34:32;12.37;;;5.63;;
72201;SDS011;60105;54.956;73.412;2023-06-04T13:37:33;20.75;;;8.70;;
72201;SDS011;60105;54.956;73.412;2023-06-04T13:40:35;14.02;;;6.03;;
72201;SDS011;60105;54.956;73.412;2023-06-04T13:43:36;15.10;;;7.00;;
72201;SDS011;60105;54.956;73.412;2023-06-04T13:46:38;14.93;;;7.38;;
72201;SDS011;60105;54.956;73.412;2023-06-04T13:49:41;17.40;;;7.53;;
72201;SDS011;60105;54.956;73.412;2023-06-04T13:53:21;21.10;;;7.95;;
72201;SDS011;60105;54.956;73.412;2023-06-04T13:56:22;14.50;;;7.50;;
72201;SDS011;60105;54.956;73.412;2023-06-04T13:59:23;20.53;;;8.50;;
72201;SDS011;60105;54.956;73.412;2023-06-04T14:02:25;19.42;;;7.75;;
72201;SDS011;60105;54.956;73.412;2023-06-04T14:05:26;24.30;;;12.25;;
72201;SDS011;60105;54.956;73.412;2023-06-04T14:08:30;16.93;;;9.13;;
72201;SDS011;60105;54.956;73.412;2023-06-04T14:11:33;15.13;;;7.18;;
72201;SDS011;60105;54.956;73.412;2023-06-04T14:14:34;11.50;;;7.07;;
72201;SDS011;60105;54.956;73.412;2023-06-04T14:18:22;17.34;;;7.50;;
72201;SDS011;60105;54.956;73.412;2023-06-04T14:21:23;19.55;;;8.48;;
72201;SDS011;60105;54.956;73.412;2023-06-04T14:24:24;16.93;;;7.50;;
72201;SDS011;60105;54.956;73.412;2023-06-04T14:27:26;15.77;;;7.78;;
72201;SDS011;60105;54.956;73.412;2023-06-04T14:30:28;19.73;;;8.20;;
72201;SDS011;60105;54.956;73.412;2023-06-04T14:33:29;21.50;;;7.10;;
72201;SDS011;60105;54.956;73.412;2023-06-04T14:36:35;23.77;;;8.15;;
72201;SDS011;60105;54.956;73.412;2023-06-04T14:39:36;22.20;;;10.37;;
72201;SDS011;60105;54.956;73.412;2023-06-04T14:42:37;22.67;;;7.50;;
72201;SDS011;60105;54.956;73.412;2023-06-04T14:45:39;18.98;;;7.93;;
72201;SDS011;60105;54.956;73.412;2023-06-04T14:48:41;16.93;;;8.03;;
72201;SDS011;60105;54.956;73.412;2023-06-04T14:51:43;17.77;;;7.97;;
72201;SDS011;60105;54.956;73.412;2023-06-04T14:54:44;16.80;;;8.77;;
72201;SDS011;60105;54.956;73.412;2023-06-04T14:57:50;17.60;;;8.68;;
72201;SDS011;60105;54.956;73.412;2023-06-04T15:00:52;19.35;;;9.40;;
72201;SDS011;60105;54.956;73.412;2023-06-04T15:03:53;17.83;;;8.73;;
72201;SDS011;60105;54.956;73.412;2023-06-04T15:06:55;17.45;;;6.97;;
72201;SDS011;60105;54.956;73.412;2023-06-04T15:09:56;19.27;;;7.80;;
72201;SDS011;60105;54.956;73.412;2023-06-04T15:16:24;15.90;;;7.47;;
72201;SDS011;60105;54.956;73.412;2023-06-04T15:19:26;17.10;;;8.57;;
72201;SDS011;60105;54.956;73.412;2023-06-04T15:22:27;26.23;;;12.10;;
72201;SDS011;60105;54.956;73.412;2023-06-04T15:25:29;31.25;;;13.45;;
72201;SDS011;60105;54.956;73.412;2023-06-04T15:28:30;58.50;;;24.40;;
72201;SDS011;60105;54.956;73.412;2023-06-04T15:31:31;90.22;;;35.45;;
72201;SDS011;60105;54.956;73.412;2023-06-04T15:34:33;92.80;;;37.77;;
72201;SDS011;60105;54.956;73.412;2023-06-04T15:37:34;90.20;;;36.70;;
72201;SDS011;60105;54.956;73.412;2023-06-04T15:40:36;76.93;;;34.78;;
72201;SDS011;60105;54.956;73.412;2023-06-04T15:43:42;64.47;;;30.17;;
72201;SDS011;60105;54.956;73.412;2023-06-04T15:46:44;49.22;;;23.10;;
72201;SDS011;60105;54.956;73.412;2023-06-04T15:49:45;41.33;;;19.20;;
72201;SDS011;60105;54.956;73.412;2023-06-04T15:53:22;40.22;;;17.63;;
72201;SDS011;60105;54.956;73.412;2023-06-04T15:56:23;33.88;;;18.10;;
72201;SDS011;60105;54.956;73.412;2023-06-04T15:59:24;36.03;;;15.97;;
72201;SDS011;60105;54.956;73.412;2023-06-04T16:02:26;33.10;;;15.70;;
72201;SDS011;60105;54.956;73.412;2023-06-04T16:05:27;31.63;;;15.90;;
72201;SDS011;60105;54.956;73.412;2023-06-04T16:08:29;25.40;;;13.50;;
72201;SDS011;60105;54.956;73.412;2023-06-04T16:11:30;31.38;;;13.30;;
72201;SDS011;60105;54.956;73.412;2023-06-04T16:14:33;23.77;;;11.50;;
72201;SDS011;60105;54.956;73.412;2023-06-04T16:17:34;25.13;;;11.38;;
72201;SDS011;60105;54.956;73.412;2023-06-04T16:20:35;21.75;;;10.13;;
72201;SDS011;60105;54.956;73.412;2023-06-04T16:23:37;21.90;;;9.93;;
72201;SDS011;60105;54.956;73.412;2023-06-04T16:26:38;17.67;;;9.60;;
72201;SDS011;60105;54.956;73.412;2023-06-04T16:29:39;15.83;;;9.20;;
72201;SDS011;60105;54.956;73.412;2023-06-04T16:33:22;124.88;;;79.88;;
72201;SDS011;60105;54.956;73.412;2023-06-04T16:36:23;29.05;;;12.65;;
72201;SDS011;60105;54.956;73.412;2023-06-04T16:39:24;117.60;;;70.27;;
72201;SDS011;60105;54.956;73.412;2023-06-04T16:42:26;310.00;;;212.00;;
72201;SDS011;60105;54.956;73.412;2023-06-04T16:45:30;255.63;;;169.27;;
72201;SDS011;60105;54.956;73.412;2023-06-04T16:48:31;125.03;;;64.20;;
72201;SDS011;60105;54.956;73.412;2023-06-04T16:51:33;99.53;;;51.40;;
72201;SDS011;60105;54.956;73.412;2023-06-04T16:54:34;95.50;;;44.97;;
72201;SDS011;60105;54.956;73.412;2023-06-04T16:57:36;204.40;;;116.85;;
72201;SDS011;60105;54.956;73.412;2023-06-04T17:00:38;106.32;;;58.58;;
72201;SDS011;60105;54.956;73.412;2023-06-04T17:03:40;51.85;;;27.63;;
72201;SDS011;60105;54.956;73.412;2023-06-04T17:06:41;47.42;;;26.05;;
72201;SDS011;60105;54.956;73.412;2023-06-04T17:09:42;44.17;;;23.00;;
72201;SDS011;60105;54.956;73.412;2023-06-04T17:13:22;39.45;;;20.38;;
72201;SDS011;60105;54.956;73.412;2023-06-04T17:16:23;32.10;;;17.35;;
72201;SDS011;60105;54.956;73.412;2023-06-04T17:19:26;29.43;;;17.17;;
72201;SDS011;60105;54.956;73.412;2023-06-04T17:22:27;40.00;;;21.67;;
72201;SDS011;60105;54.956;73.412;2023-06-04T17:25:28;25.33;;;12.63;;
72201;SDS011;60105;54.956;73.412;2023-06-04T17:28:31;49.50;;;27.80;;
72201;SDS011;60105;54.956;73.412;2023-06-04T17:31:32;21.10;;;10.18;;
72201;SDS011;60105;54.956;73.412;2023-06-04T17:34:33;36.72;;;21.95;;
72201;SDS011;60105;54.956;73.412;2023-06-04T17:37:35;17.92;;;9.07;;
72201;SDS011;60105;54.956;73.412;2023-06-04T17:40:36;18.77;;;9.20;;
72201;SDS011;60105;54.956;73.412;2023-06-04T17:43:38;16.00;;;6.93;;
72201;SDS011;60105;54.956;73.412;2023-06-04T17:46:41;13.02;;;7.22;;
72201;SDS011;60105;54.956;73.412;2023-06-04T17:49:43;16.17;;;8.30;;
72201;SDS011;60105;54.956;73.412;2023-06-04T17:53:22;64.72;;;38.53;;
72201;SDS011;60105;54.956;73.412;2023-06-04T17:56:24;38.55;;;22.50;;
72201;SDS011;60105;54.956;73.412;2023-06-04T17:59:26;24.33;;;10.40;;
72201;SDS011;60105;54.956;73.412;2023-06-04T18:02:27;16.70;;;8.30;;
72201;SDS011;60105;54.956;73.412;2023-06-04T18:05:33;19.77;;;10.30;;
72201;SDS011;60105;54.956;73.412;2023-06-04T18:08:34;14.45;;;7.32;;
72201;SDS011;60105;54.956;73.412;2023-06-04T18:11:36;18.00;;;8.60;;
72201;SDS011;60105;54.956;73.412;2023-06-04T18:14:37;22.47;;;13.33;;
72201;SDS011;60105;54.956;73.412;2023-06-04T18:18:22;15.75;;;8.05;;
72201;SDS011;60105;54.956;73.412;2023-06-04T18:21:44;19.08;;;10.02;;
72201;SDS011;60105;54.956;73.412;2023-06-04T18:24:45;17.63;;;8.77;;
72201;SDS011;60105;54.956;73.412;2023-06-04T18:27:50;16.65;;;8.32;;
72201;SDS011;60105;54.956;73.412;2023-06-04T18:30:52;16.13;;;8.80;;
72201;SDS011;60105;54.956;73.412;2023-06-04T18:33:53;19.53;;;10.67;;
72201;SDS011;60105;54.956;73.412;2023-06-04T18:37:01;16.13;;;9.23;;
72201;SDS011;60105;54.956;73.412;2023-06-04T18:40:03;19.58;;;9.25;;